Time;durP1;ratioP1;P1;durP2;ratioP2;P2;SDS_P1;SDS_P2;PMS_P1;PMS_P2;Temp;Humidity;BMP_temperature;BMP_pressure;BME280_temperature;BME280_humidity;BME280_pressure;Samples;Min_cycle;Max_cycle;Signal;HPM_P1;HPM_P2
2023/04/12 00:02:11;;;;;;;6.88;2.95;;;7.20;99.90;;;;;;6215363;23;20028;-91
2023/04/12 00:05:01;;;;;;;7.72;3.20;;;7.00;99.90;;;;;;6212406;23;20021;-88
2023/04/12 00:07:54;;;;;;;;;;;6.90;99.90;;;;;;6211356;23;20031;-90
2023/04/12 00:10:42;;;;;;;8.93;3.80;;;6.80;99.90;;;;;;6217243;23;19938;-87
2023/04/12 00:13:32;;;;;;;10.40;3.25;;;6.70;99.90;;;;;;6236649;23;20023;-89
2023/04/12 00:16:35;;;;;;;8.45;3.50;;;6.60;99.90;;;;;;6237721;23;20013;-90
2023/04/12 00:19:26;;;;;;;8.27;3.42;;;6.60;1.00;;;;;;6212437;23;20009;-87
2023/04/12 00:22:14;;;;;;;9.18;3.42;;;6.50;1.00;;;;;;6221300;23;20013;-89
2023/04/12 00:25:07;;;;;;;7.32;3.50;;;6.50;1.00;;;;;;6218919;23;20012;-90
2023/04/12 00:27:57;;;;;;;12.90;3.75;;;6.40;35.70;;;;;;6221074;23;20008;-91
2023/04/12 00:30:51;;;;;;;11.27;3.85;;;6.30;99.90;;;;;;6208812;23;20024;-92
2023/04/12 00:33:46;;;;;;;14.73;5.10;;;6.30;99.90;;;;;;6230433;23;20059;-90
2023/04/12 00:36:54;;;;;;;14.70;3.80;;;6.30;99.90;;;;;;6205127;23;20044;-91
2023/04/12 00:39:44;;;;;;;11.50;4.03;;;6.20;1.00;;;;;;6230047;23;20035;-94
2023/04/12 00:42:31;;;;;;;10.63;4.00;;;6.20;99.90;;;;;;6207037;23;20028;-91
2023/04/12 00:45:22;;;;;;;9.07;4.00;;;6.20;99.90;;;;;;6222277;23;20051;-93
2023/04/12 00:52:01;;;;;;;;;;;;;;;;;;;;;
2023/04/12 00:55:25;;;;;;;11.73;4.55;;;6.10;61.60;;;;;;6235152;23;20345;-93
2023/04/12 00:59:17;;;;;;;14.00;4.18;;;6.00;99.90;;;;;;6204397;23;20072;-93
2023/04/12 01:07:00;;;;;;;15.75;4.63;;;6.00;99.90;;;;;;6136813;23;20049;-91
2023/04/12 01:15:00;;;;;;;11.65;3.63;;;6.00;99.90;;;;;;5926472;24;20045;-93
2023/04/12 01:26:31;;;;;;;;;;;;;;;;;;;;;
2023/04/12 01:29:45;;;;;;;13.00;4.70;;;5.80;99.90;;;;;;5891032;24;20085;-92
2023/04/12 01:32:33;;;;;;;10.63;4.50;;;5.80;1.00;;;;;;5899639;23;20016;-91
2023/04/12 01:36:12;;;;;;;14.55;4.65;;;5.80;1.00;;;;;;6031533;23;20191;-91
2023/04/12 01:38:56;;;;;;;14.95;4.95;;;5.80;28.00;;;;;;6056453;23;20011;-91
2023/04/12 01:41:52;;;;;;;10.32;4.45;;;5.80;37.20;;;;;;6079069;23;20023;-92
2023/04/12 01:45:29;;;;;;;;;;;;;;;;;;;;;
2023/04/12 01:49:04;;;;;;;12.45;5.03;;;5.90;99.90;;;;;;6232441;23;20024;-89
2023/04/12 01:52:14;;;;;;;13.10;4.70;;;5.90;99.90;;;;;;6230214;23;20021;-93
2023/04/12 01:55:57;;;;;;;;;;;;;;;;;;;;;
2023/04/12 01:59:23;;;;;;;;;;;;;;;;;;;;;
2023/04/12 02:02:28;;;;;;;15.00;5.65;;;5.90;99.90;;;;;;6223765;23;20039;-92
2023/04/12 02:05:25;;;;;;;13.13;6.03;;;5.80;99.90;;;;;;6203940;23;20044;-92
2023/04/12 02:08:13;;;;;;;20.02;6.88;;;5.80;99.90;;;;;;6199862;23;20029;-92
2023/04/12 02:11:21;;;;;;;18.80;6.82;;;5.90;99.90;;;;;;6218030;23;20036;-93
2023/04/12 02:14:35;;;;;;;14.60;6.15;;;5.90;99.90;;;;;;6093275;23;20034;-91
2023/04/12 02:17:25;;;;;;;16.75;6.07;;;5.90;99.90;;;;;;6085400;23;20026;-92
2023/04/12 02:20:53;;;;;;;;;;;;;;;;;;;;;
2023/04/12 02:23:50;;;;;;;21.85;7.75;;;5.90;99.90;;;;;;6115689;23;20053;-91
2023/04/12 02:34:35;;;;;;;17.80;7.40;;;5.90;99.90;;;;;;6214782;23;20025;-91
2023/04/12 02:46:12;;;;;;;22.83;7.70;;;5.80;99.90;;;;;;6151401;23;20477;-91
2023/04/12 02:50:28;;;;;;;23.17;7.22;;;5.80;99.90;;;;;;6170069;23;20048;-91
2023/04/12 03:11:16;;;;;;;20.42;7.88;;;5.80;99.90;;;;;;5815137;24;20019;-91
2023/04/12 03:57:15;;;;;;;17.08;7.65;;;5.80;99.90;;;;;;6093670;23;20034;-93
2023/04/12 04:13:45;;;;;;;14.90;7.85;;;5.80;99.90;;;;;;5786061;24;20002;-92
2023/04/12 04:38:34;;;;;;;;;;;;;;;;;;;;;
2023/04/12 04:41:45;;;;;;;13.68;6.57;;;5.80;99.90;;;;;;5884985;24;20768;-85
2023/04/12 04:44:34;;;;;;;15.98;6.90;;;5.80;99.90;;;;;;6046953;23;20028;-87
2023/04/12 04:47:23;;;;;;;11.30;6.65;;;5.80;99.90;;;;;;6091049;23;20044;-87
2023/04/12 04:50:11;;;;;;;14.93;7.00;;;5.80;99.90;;;;;;6113348;23;20042;-86
2023/04/12 04:52:58;;;;;;;15.07;7.03;;;5.80;99.90;;;;;;6120141;23;20014;-83
2023/04/12 04:55:46;;;;;;;13.32;6.85;;;5.80;99.90;;;;;;6099803;23;20021;-83
2023/04/12 04:58:34;;;;;;;14.57;6.55;;;5.80;99.90;;;;;;6100523;23;20010;-84
2023/04/12 05:01:24;;;;;;;15.25;7.40;;;5.80;99.90;;;;;;6119878;23;20181;-82
2023/04/12 05:04:12;;;;;;;15.10;7.18;;;5.90;99.90;;;;;;6099221;23;20033;-86
2023/04/12 05:06:59;;;;;;;18.25;8.40;;;5.80;99.90;;;;;;6119533;23;20062;-89
2023/04/12 05:09:46;;;;;;;19.65;8.10;;;5.80;99.90;;;;;;6112200;23;20046;-88
2023/04/12 05:12:33;;;;;;;14.80;8.18;;;5.90;99.90;;;;;;6120426;23;20019;-86
2023/04/12 05:15:21;;;;;;;14.68;7.90;;;5.90;99.90;;;;;;6095088;23;20035;-89
2023/04/12 05:18:08;;;;;;;20.35;8.93;;;5.90;99.90;;;;;;6114936;23;20030;-88
2023/04/12 05:20:55;;;;;;;17.70;8.68;;;5.90;99.90;;;;;;6095299;23;20023;-90
2023/04/12 05:23:45;;;;;;;16.20;8.88;;;5.90;99.90;;;;;;6110048;23;20089;-88
2023/04/12 05:26:35;;;;;;;16.50;8.23;;;5.90;99.90;;;;;;6090824;23;20089;-90
2023/04/12 05:29:22;;;;;;;16.20;8.73;;;5.90;99.90;;;;;;6108509;23;20117;-87
2023/04/12 05:32:09;;;;;;;18.05;9.00;;;5.90;99.90;;;;;;6088232;23;20105;-88
2023/04/12 05:34:56;;;;;;;20.60;8.45;;;5.90;99.90;;;;;;6096617;23;20484;-90
2023/04/12 05:37:44;;;;;;;21.38;9.00;;;6.00;99.90;;;;;;6108289;23;20022;-91
2023/04/12 05:40:31;;;;;;;17.60;9.07;;;6.00;99.90;;;;;;6105847;23;20078;-93
2023/04/12 05:43:19;;;;;;;19.23;8.43;;;6.00;99.90;;;;;;6111461;23;20027;-91
2023/04/12 05:46:10;;;;;;;17.80;7.15;;;6.00;99.90;;;;;;6113003;23;20027;-91
2023/04/12 05:49:03;;;;;;;13.75;7.80;;;6.10;99.90;;;;;;6088636;23;20022;-92
2023/04/12 05:52:07;;;;;;;17.38;7.65;;;6.10;99.90;;;;;;6095447;23;20037;-92
2023/04/12 05:55:35;;;;;;;17.70;8.25;;;6.10;99.90;;;;;;6051018;23;20030;-93
2023/04/12 05:58:34;;;;;;;18.55;8.07;;;6.20;99.90;;;;;;6094063;23;20048;-91
2023/04/12 06:01:35;;;;;;;13.35;7.35;;;6.20;99.90;;;;;;6089047;23;20030;-90
2023/04/12 06:04:30;;;;;;;14.73;7.30;;;6.20;99.90;;;;;;6090261;23;20022;-91
2023/04/12 06:08:38;;;;;;;;;;;;;;;;;;;;;
2023/04/12 06:12:02;;;;;;;15.02;7.40;;;6.30;99.90;;;;;;6098089;23;20058;-90
2023/04/12 06:26:05;;;;;;;13.60;8.13;;;6.40;99.90;;;;;;6223629;22;20155;-93
2023/04/12 06:28:58;;;;;;;10.77;6.88;;;6.40;99.90;;;;;;6218872;23;20025;-92
2023/04/12 06:32:22;;;;;;;18.13;7.95;;;6.50;99.90;;;;;;6220516;23;20029;-90
2023/04/12 06:44:23;;;;;;;13.93;7.47;;;6.60;99.90;;;;;;6109182;23;20029;-92
2023/04/12 07:08:41;;;;;;;;;;;;;;;;;;;;;
2023/04/12 07:16:02;;;;;;;7.22;4.38;;;7.20;99.90;;;;;;6012456;23;20039;-92
2023/04/12 07:23:30;;;;;;;5.65;3.80;;;7.30;99.90;;;;;;6105387;23;20006;-91
2023/04/12 07:30:19;;;;;;;4.53;3.42;;;7.40;99.90;;;;;;6019238;23;20027;-91
2023/04/12 07:33:14;;;;;;;6.57;4.40;;;7.50;99.90;;;;;;6021828;23;20339;-89
2023/04/12 07:36:09;;;;;;;11.30;3.88;;;7.60;99.90;;;;;;6139978;23;20100;-89
2023/04/12 07:39:15;;;;;;;;;;;;;;;;;;;;;
2023/04/12 07:42:23;;;;;;;5.05;3.38;;;7.80;99.90;;;;;;6162132;23;20076;-89
2023/04/12 07:46:26;;;;;;;7.85;5.40;;;7.90;99.90;;;;;;6149901;23;20025;-90
2023/04/12 07:49:29;;;;;;;4.38;2.80;;;8.10;99.90;;;;;;6150891;23;20030;-92
2023/04/12 07:53:20;;;;;;;8.48;3.38;;;8.30;99.90;;;;;;6147690;23;20068;-92
2023/04/12 07:56:13;;;;;;;4.85;2.70;;;8.40;99.90;;;;;;6166961;23;20032;-88
2023/04/12 07:59:03;;;;;;;6.80;3.30;;;8.50;99.90;;;;;;6219747;23;20032;-93
2023/04/12 08:03:08;;;;;;;5.60;2.88;;;8.60;99.90;;;;;;6217781;23;20028;-93
2023/04/12 08:10:46;;;;;;;5.57;3.45;;;8.80;13.50;;;;;;6022539;23;20031;-92
2023/04/12 08:25:03;;;;;;;7.93;3.70;;;9.10;99.90;;;;;;6228742;22;21557;-92
2023/04/12 08:28:17;;;;;;;6.63;3.88;;;9.20;99.90;;;;;;6259317;23;20431;-93
2023/04/12 08:31:30;;;;;;;8.18;4.32;;;9.20;99.90;;;;;;6115756;23;20028;-90
2023/04/12 08:34:25;;;;;;;6.32;3.33;;;9.20;1.00;;;;;;6230610;22;20031;-92
2023/04/12 08:37:12;;;;;;;3.92;2.75;;;9.20;99.90;;;;;;6252053;22;20666;-92
2023/04/12 08:40:10;;;;;;;8.13;4.35;;;9.20;99.90;;;;;;6251052;23;20024;-91
2023/04/12 08:43:22;;;;;;;5.30;3.25;;;9.20;1.00;;;;;;6226659;23;20024;-89
2023/04/12 08:46:09;;;;;;;4.82;2.35;;;9.20;99.90;;;;;;6250952;23;20060;-90
2023/04/12 08:49:00;;;;;;;7.57;2.42;;;9.30;1.00;;;;;;6227110;23;20043;-88
2023/04/12 08:51:57;;;;;;;4.07;2.67;;;9.30;99.90;;;;;;6227136;23;20344;-90
2023/04/12 08:55:10;;;;;;;5.10;3.00;;;9.20;99.90;;;;;;6248746;23;20023;-92
2023/04/12 08:58:30;;;;;;;7.03;3.30;;;9.10;99.90;;;;;;6232720;23;20023;-92
2023/04/12 09:01:30;;;;;;;5.93;2.78;;;9.00;99.90;;;;;;6211139;23;20028;-89
2023/04/12 09:04:45;;;;;;;4.60;2.72;;;9.00;1.00;;;;;;6224890;23;20115;-92
2023/04/12 09:07:32;;;;;;;6.72;3.55;;;9.00;99.90;;;;;;6108224;23;20042;-91
2023/04/12 09:10:35;;;;;;;8.57;3.13;;;9.10;3.00;;;;;;6253149;22;20024;-92
2023/04/12 09:13:43;;;;;;;6.05;3.80;;;9.10;99.90;;;;;;6213670;23;20024;-92
2023/04/12 09:16:49;;;;;;;7.32;3.40;;;9.20;99.90;;;;;;6240492;22;20023;-89
2023/04/12 09:19:37;;;;;;;5.80;3.15;;;9.20;1.00;;;;;;6241856;22;20134;-92
2023/04/12 09:23:36;;;;;;;9.25;3.22;;;9.30;99.90;;;;;;6244123;23;20024;-91
2023/04/12 09:27:15;;;;;;;8.95;3.75;;;9.40;1.00;;;;;;6250992;23;20032;-91
2023/04/12 09:30:59;;;;;;;4.53;2.72;;;9.30;1.00;;;;;;6252475;22;20008;-87
2023/04/12 09:34:08;;;;;;;6.82;2.70;;;9.30;99.90;;;;;;6244995;23;20134;-90
2023/04/12 09:36:56;;;;;;;6.90;3.67;;;9.30;99.90;;;;;;6261928;23;20071;-91
2023/04/12 09:40:22;;;;;;;8.82;3.50;;;9.40;99.90;;;;;;6237356;23;20024;-93
2023/04/12 09:44:02;;;;;;;9.15;3.40;;;9.50;99.90;;;;;;6030910;23;20080;-93
2023/04/12 09:47:52;;;;;;;8.13;3.60;;;9.60;1.00;;;;;;6088446;23;20086;-91
2023/04/12 09:51:39;;;;;;;5.70;3.60;;;9.80;1.00;;;;;;6058521;23;20038;-90
2023/04/12 09:54:30;;;;;;;8.00;3.47;;;9.80;99.90;;;;;;6053142;23;20034;-92
2023/04/12 10:05:40;;;;;;;7.35;3.53;;;9.90;75.50;;;;;;6020629;23;20122;-91
2023/04/12 10:09:10;;;;;;;5.63;3.45;;;10.30;1.00;;;;;;6154822;23;20357;-90
2023/04/12 10:13:00;;;;;;;5.30;3.38;;;10.20;98.60;;;;;;6202664;23;20079;-92
2023/04/12 10:17:25;;;;;;;4.38;2.78;;;10.60;99.90;;;;;;6257773;23;20024;-90
2023/04/12 10:24:41;;;;;;;12.77;3.45;;;10.60;1.00;;;;;;6104524;23;19905;-93
2023/04/12 10:28:40;;;;;;;5.15;3.03;;;10.60;1.00;;;;;;6087845;23;20319;-91
2023/04/12 10:45:32;;;;;;;;;;;;;;;;;;;;;
2023/04/12 10:49:08;;;;;;;4.30;2.35;;;11.70;99.90;;;;;;6062298;23;20038;-91
2023/04/12 11:01:42;;;;;;;2.67;1.55;;;12.10;99.90;;;;;;6050565;23;20015;-92
2023/04/12 11:05:35;;;;;;;1.95;1.27;;;12.60;99.90;;;;;;6053553;23;20034;-88
2023/04/12 11:12:06;;;;;;;2.67;1.42;;;12.70;1.00;;;;;;6323788;22;20019;-88
2023/04/12 11:15:11;;;;;;;4.60;1.67;;;12.40;99.90;;;;;;6310068;22;20022;-89
2023/04/12 11:18:06;;;;;;;3.10;1.52;;;12.20;99.90;;;;;;6330521;22;20015;-92
2023/04/12 11:20:57;;;;;;;5.00;1.60;;;12.10;99.90;;;;;;6322377;22;20330;-89
2023/04/12 11:23:55;;;;;;;3.50;1.48;;;12.20;99.90;;;;;;6317158;22;20034;-93
2023/04/12 11:27:10;;;;;;;4.35;1.58;;;12.10;99.90;;;;;;6315693;22;20033;-90
2023/04/12 11:30:01;;;;;;;3.38;1.38;;;12.40;99.90;;;;;;6313722;22;20042;-92
2023/04/12 11:32:58;;;;;;;2.75;1.70;;;12.30;99.90;;;;;;6314837;22;20029;-92
2023/04/12 11:35:46;;;;;;;6.90;1.83;;;12.20;99.90;;;;;;6293607;22;20094;-91
2023/04/12 11:38:46;;;;;;;4.07;1.48;;;12.50;99.90;;;;;;6304689;22;20046;-89
2023/04/12 11:42:10;;;;;;;2.03;1.27;;;12.60;99.90;;;;;;6309513;22;20015;-89
2023/04/12 11:45:21;;;;;;;2.90;1.30;;;13.00;99.90;;;;;;6329117;22;20019;-89
2023/04/12 11:48:18;;;;;;;1.90;1.00;;;13.00;99.90;;;;;;6327181;22;20034;-88
2023/04/12 11:51:34;;;;;;;;;;;;;;;;;;;;;
2023/04/12 11:55:37;;;;;;;;;;;;;;;;;;;;;
2023/04/12 11:59:17;;;;;;;2.45;1.35;;;13.60;52.40;;;;;;6325136;22;20362;-91
2023/04/12 12:10:00;;;;;;;2.63;1.27;;;12.70;99.90;;;;;;6317907;22;20027;-92
2023/04/12 12:12:55;;;;;;;3.20;1.38;;;12.70;99.90;;;;;;6321810;22;20027;-92
2023/04/12 12:15:58;;;;;;;1.92;1.02;;;13.00;99.90;;;;;;6303665;22;20023;-91
2023/04/12 12:19:05;;;;;;;3.28;1.30;;;13.60;91.90;;;;;;6196451;23;20127;-91
2023/04/12 12:22:39;;;;;;;1.40;1.10;;;13.40;7.00;;;;;;6174298;23;20021;-90
2023/04/12 12:26:26;;;;;;;2.67;1.20;;;13.00;1.00;;;;;;6151385;23;20040;-90
2023/04/12 12:29:47;;;;;;;;;;;;;;;;;;;;;
2023/04/12 12:32:51;;;;;;;3.70;1.17;;;14.20;1.00;;;;;;6177122;23;20025;-93
2023/04/12 12:36:15;;;;;;;4.25;1.83;;;15.00;1.00;;;;;;6189975;23;20032;-92
2023/04/12 12:39:23;;;;;;;3.67;1.25;;;15.60;1.00;;;;;;6158352;23;20025;-91
2023/04/12 12:42:17;;;;;;;2.35;1.20;;;15.90;99.90;;;;;;6175215;23;20091;-92
2023/04/12 12:45:06;;;;;;;2.53;1.10;;;14.80;99.90;;;;;;6173536;23;20084;-89
2023/04/12 12:48:04;;;;;;;3.72;1.25;;;13.80;99.90;;;;;;6173477;23;20029;-94
2023/04/12 12:50:53;;;;;;;2.78;1.20;;;13.30;99.90;;;;;;6316673;22;20031;-91
2023/04/12 12:53:41;;;;;;;2.72;1.08;;;13.10;1.00;;;;;;6295638;22;20088;-93
2023/04/12 12:56:34;;;;;;;2.63;1.27;;;13.00;1.00;;;;;;6316027;22;20027;-92
2023/04/12 12:59:24;;;;;;;;;;;13.40;1.00;;;;;;6298040;22;20074;-93
2023/04/12 13:02:21;;;;;;;1.27;1.00;;;13.90;1.00;;;;;;6320259;22;19930;-93
2023/04/12 13:05:15;;;;;;;2.25;1.55;;;13.70;99.90;;;;;;6303110;22;20054;-93
2023/04/12 13:08:05;;;;;;;2.60;1.30;;;13.40;1.00;;;;;;6305586;22;20104;-92
2023/04/12 13:10:54;;;;;;;2.03;1.10;;;13.20;1.00;;;;;;6301365;22;20054;-93
2023/04/12 13:13:44;;;;;;;1.65;0.95;;;13.40;1.00;;;;;;6296854;22;20023;-92
2023/04/12 13:16:47;;;;;;;3.80;1.13;;;13.50;1.00;;;;;;6300703;22;20030;-92
2023/04/12 13:19:40;;;;;;;2.92;1.05;;;13.30;1.00;;;;;;6301175;22;20019;-93
2023/04/12 13:22:28;;;;;;;2.75;1.10;;;13.20;1.00;;;;;;6300526;22;20080;-92
2023/04/12 13:25:22;;;;;;;1.67;1.15;;;13.20;1.00;;;;;;6298806;22;20022;-93
2023/04/12 13:28:20;;;;;;;2.15;1.00;;;13.30;1.00;;;;;;6282494;22;20058;-92
2023/04/12 13:31:10;;;;;;;2.70;1.00;;;13.50;1.00;;;;;;6297730;22;20047;-89
2023/04/12 13:33:58;;;;;;;2.92;1.00;;;13.20;1.00;;;;;;6298682;22;20023;-91
2023/04/12 13:36:48;;;;;;;2.67;1.17;;;13.30;1.00;;;;;;6311468;22;20023;-91
2023/04/12 13:39:38;;;;;;;2.05;0.90;;;13.80;99.90;;;;;;6307753;22;20019;-93
2023/04/12 13:42:27;;;;;;;3.20;0.93;;;14.10;99.90;;;;;;6300553;22;20023;-92
2023/04/12 13:45:19;;;;;;;4.78;0.85;;;14.40;99.90;;;;;;6303939;22;20371;-91
2023/04/12 13:48:10;;;;;;;2.00;0.95;;;14.00;99.90;;;;;;6325496;22;20028;-92
2023/04/12 13:50:58;;;;;;;2.15;1.10;;;13.70;99.90;;;;;;6326758;22;20019;-93
2023/04/12 13:53:46;;;;;;;1.38;1.10;;;13.50;99.90;;;;;;6296696;22;20027;-91
2023/04/12 13:57:06;;;;;;;4.95;1.05;;;13.30;99.90;;;;;;6302928;22;20102;-92
2023/04/12 14:00:06;;;;;;;;;;;13.30;99.90;;;;;;6301250;22;20023;-93
2023/04/12 14:03:13;;;;;;;0.95;0.80;;;13.40;99.90;;;;;;6319909;22;19919;-92
2023/04/12 14:06:09;;;;;;;2.15;1.00;;;13.10;99.90;;;;;;6282040;22;20077;-92
2023/04/12 14:08:58;;;;;;;3.60;1.00;;;13.00;99.90;;;;;;6296919;22;20334;-94
2023/04/12 14:11:48;;;;;;;2.05;1.05;;;13.10;99.90;;;;;;6318285;22;20019;-94
2023/04/12 14:14:47;;;;;;;1.70;1.00;;;13.50;99.90;;;;;;6275544;22;20023;-92
2023/04/12 14:17:35;;;;;;;1.40;0.90;;;14.50;99.90;;;;;;6293909;22;20448;-93
2023/04/12 14:20:24;;;;;;;1.25;0.80;;;14.70;99.90;;;;;;6296819;22;20019;-92
2023/04/12 14:23:18;;;;;;;2.92;0.95;;;14.80;99.90;;;;;;6277820;22;20086;-93
2023/04/12 14:26:15;;;;;;;2.38;1.02;;;14.20;99.90;;;;;;6301589;22;20053;-91
2023/04/12 14:29:09;;;;;;;0.82;0.80;;;14.10;99.90;;;;;;6321319;22;20094;-92
2023/04/12 14:31:56;;;;;;;2.17;1.00;;;14.40;99.90;;;;;;6308559;22;20011;-91
2023/04/12 14:34:48;;;;;;;1.73;0.60;;;15.50;99.90;;;;;;6334306;22;20071;-91
2023/04/12 14:37:38;;;;;;;1.75;0.88;;;16.70;99.90;;;;;;6312922;22;20074;-88
2023/04/12 14:43:34;;;;;;;2.17;0.70;;;15.10;99.90;;;;;;6307752;22;20007;-92
2023/04/12 14:47:15;;;;;;;2.72;1.00;;;14.60;99.90;;;;;;6164280;22;20020;-91
2023/04/12 14:50:53;;;;;;;2.60;0.98;;;14.90;99.90;;;;;;6306300;22;20351;-92
2023/04/12 14:54:00;;;;;;;2.53;1.00;;;15.00;99.90;;;;;;6306968;22;20045;-92
2023/04/12 14:57:26;;;;;;;;;;;;;;;;;;;;;
2023/04/12 15:01:11;;;;;;;3.00;1.00;;;13.70;99.90;;;;;;6314793;22;20034;-93
2023/04/12 15:09:25;;;;;;;1.52;1.00;;;13.50;99.90;;;;;;6221245;22;20024;-93
2023/04/12 15:20:15;;;;;;;2.42;1.30;;;12.90;99.90;;;;;;6304757;22;20022;-95
2023/04/12 15:27:39;;;;;;;0.90;0.70;;;10.90;1.00;;;;;;6306792;22;20045;-92
2023/04/12 15:31:10;;;;;;;10.15;0.93;;;9.90;46.60;;;;;;6188923;23;20028;-92
2023/04/12 15:34:29;;;;;;;;;;;;;;;;;;;;;
2023/04/12 15:37:53;;;;;;;0.90;0.75;;;9.00;99.90;;;;;;6071148;23;20075;-92
2023/04/12 15:41:12;;;;;;;0.85;0.80;;;8.90;1.00;;;;;;6071076;23;20315;-94
2023/04/12 15:44:47;;;;;;;1.15;0.80;;;8.90;1.00;;;;;;6073032;23;20333;-95
2023/04/12 15:52:35;;;;;;;1.10;1.00;;;9.20;14.00;;;;;;6062901;23;20025;-92
2023/04/12 15:55:53;;;;;;;1.90;1.40;;;9.60;1.00;;;;;;6054528;23;20034;-91
2023/04/12 15:58:48;;;;;;;1.85;1.30;;;9.50;1.00;;;;;;6052916;23;20089;-93
2023/04/12 16:01:59;;;;;;;2.38;0.70;;;9.60;1.00;;;;;;6114955;23;20524;-93
2023/04/12 16:04:54;;;;;;;2.08;1.70;;;9.60;1.00;;;;;;6132380;23;20033;-92
2023/04/12 16:08:33;;;;;;;2.35;1.45;;;9.60;1.00;;;;;;6150302;23;20024;-92
2023/04/12 16:11:36;;;;;;;1.10;1.00;;;9.40;1.00;;;;;;6262750;22;20075;-90
2023/04/12 16:14:46;;;;;;;4.07;1.88;;;9.30;1.00;;;;;;6317186;22;20027;-91
2023/04/12 16:17:36;;;;;;;1.50;1.40;;;9.20;1.00;;;;;;6293813;22;20318;-94
2023/04/12 16:20:24;;;;;;;1.20;1.10;;;9.30;1.00;;;;;;6316359;22;20033;-93
2023/04/12 16:23:12;;;;;;;0.80;0.80;;;9.30;1.00;;;;;;6294913;22;20038;-94
2023/04/12 16:26:03;;;;;;;0.65;0.65;;;9.30;1.00;;;;;;6312419;22;20099;-91
2023/04/12 16:28:56;;;;;;;0.90;0.90;;;9.30;1.00;;;;;;6290895;22;20027;-92
2023/04/12 16:31:47;;;;;;;1.95;1.20;;;9.40;1.00;;;;;;6271297;22;20150;-92
2023/04/12 16:36:00;;;;;;;1.88;1.17;;;9.60;1.00;;;;;;6314750;22;20090;-91
2023/04/12 16:38:31;;;;;;;1.88;1.10;;;9.60;99.90;;;;;;6325544;22;20026;-93
2023/04/12 16:41:51;;;;;;;0.82;0.82;;;9.60;99.90;;;;;;6309153;22;20023;-93
2023/04/12 16:44:42;;;;;;;3.20;1.10;;;9.50;99.90;;;;;;6305126;22;20019;-94
2023/04/12 16:47:49;;;;;;;1.20;1.10;;;9.50;99.90;;;;;;6301317;22;20026;-92
2023/04/12 16:51:03;;;;;;;1.50;1.00;;;9.50;99.90;;;;;;6326736;22;20021;-93
2023/04/12 16:53:52;;;;;;;2.47;0.93;;;9.50;99.90;;;;;;6256477;22;20050;-92
2023/04/12 16:56:40;;;;;;;3.70;0.82;;;9.40;99.90;;;;;;6296985;22;20115;-93
2023/04/12 16:59:34;;;;;;;0.90;0.80;;;9.40;99.90;;;;;;6295842;22;20452;-92
2023/04/12 17:02:21;;;;;;;0.98;0.98;;;9.40;99.90;;;;;;6317178;22;20107;-92
2023/04/12 17:05:16;;;;;;;0.90;0.80;;;9.40;99.90;;;;;;6315816;22;20393;-92
2023/04/12 17:08:17;;;;;;;2.80;0.90;;;9.30;99.90;;;;;;6294356;22;20395;-90
2023/04/12 17:11:05;;;;;;;1.15;0.90;;;9.20;99.90;;;;;;6290272;22;20019;-92
2023/04/12 17:13:56;;;;;;;1.23;1.05;;;9.20;99.90;;;;;;6309415;22;20081;-88
2023/04/12 17:16:44;;;;;;;1.10;1.00;;;9.00;99.90;;;;;;6320003;22;20322;-91
2023/04/12 17:19:43;;;;;;;2.25;1.50;;;8.90;99.90;;;;;;6294766;22;20023;-92
2023/04/12 17:22:30;;;;;;;2.53;1.50;;;8.80;1.00;;;;;;6292964;22;20080;-91
2023/04/12 17:25:19;;;;;;;1.58;1.48;;;8.70;1.00;;;;;;6311868;22;20039;-90
2023/04/12 17:28:14;;;;;;;1.30;1.20;;;8.50;1.00;;;;;;6272920;22;20513;-89
2023/04/12 17:35:13;;;;;;;2.00;1.65;;;8.40;94.00;;;;;;6259785;22;20015;-91
2023/04/12 17:38:02;;;;;;;1.42;0.95;;;8.30;99.90;;;;;;6268592;22;20019;-93
2023/04/12 17:40:50;;;;;;;2.03;1.42;;;8.20;99.90;;;;;;6292560;22;20027;-90
2023/04/12 17:43:39;;;;;;;2.67;1.40;;;8.20;99.90;;;;;;6319186;22;20133;-90
2023/04/12 17:46:26;;;;;;;1.95;1.23;;;8.10;99.90;;;;;;6293832;22;20319;-91
2023/04/12 17:49:14;;;;;;;3.03;1.48;;;8.10;99.90;;;;;;6326463;22;20027;-91
2023/04/12 17:52:03;;;;;;;2.70;1.50;;;8.10;1.00;;;;;;6335131;22;20050;-92
2023/04/12 17:54:51;;;;;;;2.08;1.30;;;8.10;46.60;;;;;;6309781;22;20022;-88
2023/04/12 17:57:40;;;;;;;1.95;1.20;;;8.10;99.90;;;;;;6313639;22;20019;-90
2023/04/12 18:00:30;;;;;;;1.40;1.30;;;8.00;99.90;;;;;;6314296;22;20026;-87
2023/04/12 18:03:30;;;;;;;1.40;1.30;;;8.00;99.90;;;;;;6306992;22;20025;-89
2023/04/12 18:06:19;;;;;;;1.83;1.38;;;7.90;1.00;;;;;;6304579;22;20027;-91
2023/04/12 18:09:11;;;;;;;1.73;1.60;;;7.80;1.00;;;;;;6304712;22;20124;-92
2023/04/12 18:11:59;;;;;;;1.30;1.20;;;7.80;52.40;;;;;;6295357;22;20039;-92
2023/04/12 18:14:50;;;;;;;1.33;1.20;;;7.80;99.90;;;;;;6291621;22;20033;-93
2023/04/12 18:17:38;;;;;;;1.00;0.90;;;7.80;99.90;;;;;;6289782;22;20019;-93
2023/04/12 18:20:28;;;;;;;1.35;1.20;;;7.80;99.90;;;;;;6314647;22;20106;-92
2023/04/12 18:23:17;;;;;;;1.50;1.13;;;7.80;1.00;;;;;;6291418;22;20073;-94
2023/04/12 18:26:22;;;;;;;1.58;1.20;;;7.70;1.00;;;;;;6294100;22;20038;-93
2023/04/12 18:29:15;;;;;;;1.00;1.00;;;7.70;1.00;;;;;;6295375;22;20069;-93
2023/04/12 18:32:06;;;;;;;2.08;1.08;;;7.70;10.30;;;;;;6296836;22;20027;-91
2023/04/12 18:35:03;;;;;;;1.90;1.45;;;7.70;1.00;;;;;;6277132;22;20076;-89
2023/04/12 18:37:52;;;;;;;1.45;1.35;;;7.70;1.00;;;;;;6299278;22;20023;-91
2023/04/12 18:40:40;;;;;;;4.55;1.60;;;7.70;37.00;;;;;;6288995;22;20019;-89
2023/04/12 18:43:32;;;;;;;3.83;2.08;;;7.70;1.00;;;;;;6311580;22;20051;-91
2023/04/12 18:46:20;;;;;;;;;;;7.70;1.00;;;;;;6295996;22;20024;-89
2023/04/12 18:49:14;;;;;;;;;;;7.70;1.00;;;;;;6322023;22;19948;-92
2023/04/12 18:52:04;;;;;;;1.58;1.40;;;7.70;99.90;;;;;;6300727;22;20243;-88
2023/04/12 18:54:55;;;;;;;2.47;1.58;;;7.70;1.00;;;;;;6303844;22;20027;-88
2023/04/12 18:57:42;;;;;;;2.15;1.27;;;7.70;99.90;;;;;;6311608;22;20031;-84
2023/04/12 19:00:35;;;;;;;2.90;2.13;;;7.70;99.90;;;;;;6333416;22;20014;-87
2023/04/12 19:03:26;;;;;;;1.95;1.30;;;7.70;99.90;;;;;;6313487;22;20069;-91
2023/04/12 19:06:15;;;;;;;1.58;1.10;;;7.70;99.90;;;;;;6314008;22;20053;-90
2023/04/12 19:09:07;;;;;;;3.45;2.28;;;7.80;1.00;;;;;;6335499;22;20019;-88
2023/04/12 19:11:55;;;;;;;2.80;1.75;;;7.80;99.90;;;;;;6335559;22;20023;-89
2023/04/12 19:14:47;;;;;;;1.75;1.63;;;7.80;99.90;;;;;;6306817;22;20030;-92
2023/04/12 19:17:38;;;;;;;1.60;1.50;;;7.80;99.90;;;;;;6317211;22;20023;-91
2023/04/12 19:20:28;;;;;;;2.05;1.25;;;7.80;99.90;;;;;;6313590;22;20019;-93
2023/04/12 19:23:17;;;;;;;2.08;1.15;;;7.80;99.90;;;;;;6290031;22;20462;-93
2023/04/12 19:26:08;;;;;;;1.58;1.10;;;7.80;99.90;;;;;;6292061;22;20023;-92
2023/04/12 19:28:58;;;;;;;4.57;1.40;;;7.80;99.90;;;;;;6326053;22;20326;-92
2023/04/12 19:31:48;;;;;;;2.92;1.40;;;7.80;99.90;;;;;;6302517;22;20064;-89
2023/04/12 19:34:42;;;;;;;4.85;2.03;;;7.80;99.90;;;;;;6302820;22;20027;-91
2023/04/12 19:37:32;;;;;;;3.10;1.90;;;7.80;99.90;;;;;;6328890;22;20023;-89
2023/04/12 19:40:20;;;;;;;3.42;1.80;;;7.70;31.40;;;;;;6311592;22;20027;-92
2023/04/12 19:43:08;;;;;;;1.63;1.52;;;7.70;1.00;;;;;;6311924;22;20041;-90
2023/04/12 19:45:56;;;;;;;1.88;1.48;;;7.70;1.00;;;;;;6327699;22;20023;-90
2023/04/12 19:48:47;;;;;;;2.20;2.00;;;7.70;1.00;;;;;;6303902;22;20024;-92
2023/04/12 19:51:36;;;;;;;1.50;1.40;;;7.70;1.00;;;;;;6328961;22;20030;-91
2023/04/12 19:54:24;;;;;;;3.08;1.77;;;7.70;99.90;;;;;;6306152;22;20035;-92
2023/04/12 19:57:16;;;;;;;2.67;1.55;;;7.60;99.90;;;;;;6302848;22;20093;-91
2023/04/12 20:00:11;;;;;;;4.03;2.35;;;7.60;99.90;;;;;;6315235;22;20023;-91
2023/04/12 20:03:02;;;;;;;5.05;2.55;;;7.60;99.90;;;;;;6270823;22;20023;-93
2023/04/12 20:05:51;;;;;;;4.38;2.22;;;7.60;99.90;;;;;;6315303;22;20816;-91
2023/04/12 20:08:39;;;;;;;2.78;2.33;;;7.60;99.90;;;;;;6268375;22;20031;-92
2023/04/12 20:11:27;;;;;;;2.53;2.22;;;7.60;99.90;;;;;;6290834;22;20311;-93
2023/04/12 20:14:15;;;;;;;2.38;1.70;;;7.60;99.90;;;;;;6290790;22;20045;-90
2023/04/12 20:17:04;;;;;;;1.95;1.80;;;7.60;99.90;;;;;;6317238;22;20031;-92
2023/04/12 20:19:53;;;;;;;3.55;1.95;;;7.70;99.90;;;;;;6315299;22;20420;-92
2023/04/12 20:22:45;;;;;;;1.50;1.40;;;7.60;91.50;;;;;;6293110;22;20023;-92
2023/04/12 20:25:36;;;;;;;2.67;1.50;;;7.70;35.50;;;;;;6292333;22;20069;-92
2023/04/12 20:28:24;;;;;;;5.65;1.70;;;7.70;5.00;;;;;;6314138;22;20499;-92
2023/04/12 20:31:12;;;;;;;1.83;1.40;;;7.70;1.00;;;;;;6314301;22;20027;-93
2023/04/12 20:33:59;;;;;;;1.58;1.30;;;7.70;1.00;;;;;;6312183;22;20342;-95
2023/04/12 20:41:09;;;;;;;1.45;1.35;;;7.70;1.00;;;;;;6230060;22;20367;-93
2023/04/12 20:43:59;;;;;;;1.45;1.35;;;7.70;1.00;;;;;;6231576;22;20084;-91
2023/04/12 20:46:47;;;;;;;3.08;1.20;;;7.70;1.00;;;;;;6286256;22;20050;-90
2023/04/12 20:49:37;;;;;;;1.80;1.42;;;7.60;70.00;;;;;;6312528;22;20047;-87
2023/04/12 20:52:26;;;;;;;1.42;1.20;;;7.50;99.90;;;;;;6314391;22;20015;-91
2023/04/12 20:55:13;;;;;;;3.00;1.70;;;7.30;99.90;;;;;;6332577;22;20023;-93
2023/04/12 20:58:03;;;;;;;2.03;1.60;;;7.30;1.00;;;;;;6309868;22;20033;-94
2023/04/12 21:00:53;;;;;;;2.95;1.88;;;7.20;99.90;;;;;;6316780;22;20019;-92
2023/04/12 21:03:43;;;;;;;5.38;2.40;;;7.20;1.00;;;;;;6292532;22;20050;-93